createdAt,value
2022-08-22T00:00:17.035Z,75.80
2022-08-22T00:02:58.023Z,76.70
2022-08-22T00:02:59.616Z,75.70
2022-08-22T00:03:08.536Z,76.30
2022-08-22T00:03:12.559Z,76.40
2022-08-22T00:03:19.108Z,76.30
2022-08-22T00:06:01.739Z,76.10
2022-08-22T00:08:41.278Z,76.00
2022-08-22T00:11:19.306Z,76.30
2022-08-22T00:14:01.526Z,76.30
2022-08-22T00:16:40.177Z,75.70
2022-08-22T00:19:19.592Z,75.80
2022-08-22T00:21:54.401Z,76.00
2022-08-22T00:24:30.592Z,75.70
2022-08-22T00:27:04.490Z,76.00
2022-08-22T00:29:41.638Z,76.10
2022-08-22T00:32:20.661Z,76.20
2022-08-22T00:34:58.209Z,76.10
2022-08-22T00:37:33.254Z,76.20
2022-08-22T00:40:14.347Z,76.30
2022-08-22T00:42:58.510Z,76.30
2022-08-22T00:46:07.937Z,76.50
2022-08-22T00:49:02.349Z,76.70
2022-08-22T00:52:18.113Z,76.60
2022-08-22T00:55:13.132Z,76.80
2022-08-22T00:57:58.669Z,76.50
2022-08-22T01:00:35.266Z,76.20
2022-08-22T01:03:49.681Z,76.00
2022-08-22T01:06:29.718Z,76.40
2022-08-22T01:09:10.768Z,76.00
2022-08-22T01:12:12.017Z,76.20
2022-08-22T01:14:48.907Z,76.20
2022-08-22T01:18:00.544Z,75.80
2022-08-22T01:21:14.676Z,76.30
2022-08-22T01:24:25.398Z,76.10
2022-08-22T01:27:29.571Z,76.10
2022-08-22T01:30:23.373Z,76.30
2022-08-22T01:33:29.700Z,76.10
2022-08-22T01:36:38.577Z,76.00
2022-08-22T01:39:37.021Z,76.00
2022-08-22T01:42:30.006Z,75.70
2022-08-22T01:45:26.586Z,75.60
2022-08-22T01:48:00.129Z,75.60
2022-08-22T01:50:38.139Z,75.50
2022-08-22T01:53:15.583Z,75.60
2022-08-22T01:55:55.943Z,75.40
2022-08-22T01:58:28.519Z,75.40
2022-08-22T02:01:16.691Z,75.40
2022-08-22T02:04:00.570Z,75.20
2022-08-22T02:06:39.038Z,75.10
2022-08-22T02:09:22.088Z,75.10
2022-08-22T02:11:56.870Z,74.80
2022-08-22T02:14:39.213Z,74.80
2022-08-22T02:17:16.250Z,74.60
2022-08-22T02:19:55.670Z,74.30
2022-08-22T02:22:34.377Z,74.40
2022-08-22T02:25:11.851Z,74.40
2022-08-22T02:27:54.280Z,74.30
2022-08-22T02:30:27.835Z,74.30
2022-08-22T02:33:05.669Z,73.50
2022-08-22T02:35:39.128Z,74.00
2022-08-22T02:38:24.259Z,74.10
2022-08-22T02:41:06.231Z,74.10
2022-08-22T02:43:43.785Z,73.70
2022-08-22T02:46:24.345Z,73.40
2022-08-22T02:49:03.816Z,73.10
2022-08-22T02:51:42.242Z,73.20
2022-08-22T02:54:19.183Z,73.20
2022-08-22T02:56:58.276Z,73.00
2022-08-22T02:59:34.423Z,73.20
2022-08-22T03:02:30.033Z,72.80
2022-08-22T03:05:02.929Z,72.70
2022-08-22T03:07:40.762Z,72.90
2022-08-22T03:10:19.477Z,72.60
2022-08-22T03:13:02.681Z,72.30
2022-08-22T03:15:38.542Z,72.20
2022-08-22T03:18:24.034Z,72.20
2022-08-22T03:20:55.776Z,72.40
2022-08-22T03:23:41.649Z,72.20
2022-08-22T03:26:16.783Z,72.00
2022-08-22T03:29:00.135Z,72.00
2022-08-22T03:31:32.115Z,71.90
2022-08-22T03:34:22.996Z,71.80
2022-08-22T03:37:06.695Z,71.70
2022-08-22T03:39:50.022Z,71.60
2022-08-22T03:42:52.197Z,71.50
2022-08-22T03:45:53.464Z,71.70
2022-08-22T03:48:52.543Z,71.60
2022-08-22T03:51:34.385Z,71.70
2022-08-22T03:54:43.619Z,71.70
2022-08-22T03:57:46.360Z,71.70
2022-08-22T04:00:40.805Z,71.80
2022-08-22T04:03:47.892Z,71.70
2022-08-22T04:06:48.352Z,71.90
2022-08-22T04:09:53.379Z,72.00
2022-08-22T04:12:50.111Z,72.00
2022-08-22T04:15:50.252Z,71.90
2022-08-22T04:18:38.062Z,71.30
2022-08-22T04:21:40.186Z,70.60
2022-08-22T04:24:23.729Z,70.70
2022-08-22T04:26:57.535Z,70.60
2022-08-22T04:29:34.270Z,70.50
2022-08-22T04:32:14.520Z,70.40
2022-08-22T04:34:49.915Z,70.20
2022-08-22T04:37:25.224Z,69.30
2022-08-22T04:40:01.461Z,68.30
2022-08-22T04:42:36.577Z,68.00
2022-08-22T04:45:11.267Z,65.60
2022-08-22T04:47:47.202Z,65.10
2022-08-22T04:50:29.329Z,64.90
2022-08-22T04:53:10.465Z,64.80
2022-08-22T04:55:50.858Z,64.90
2022-08-22T04:58:34.530Z,64.90
2022-08-22T05:01:17.794Z,64.40
2022-08-22T05:03:54.165Z,64.40
2022-08-22T05:06:27.246Z,64.70
2022-08-22T05:09:01.153Z,64.80
2022-08-22T05:11:32.041Z,65.00
2022-08-22T05:14:05.541Z,65.50
2022-08-22T05:16:38.538Z,65.70
2022-08-22T05:19:16.775Z,66.20
2022-08-22T05:21:49.752Z,66.40
2022-08-22T05:24:28.115Z,66.40
2022-08-22T05:27:02.036Z,66.80
2022-08-22T05:29:33.514Z,66.90
2022-08-22T05:32:07.031Z,67.10
2022-08-22T05:34:41.326Z,67.20
2022-08-22T05:37:14.758Z,67.40
2022-08-22T05:39:48.820Z,67.50
2022-08-22T05:42:25.139Z,67.70
2022-08-22T05:44:55.688Z,67.80
2022-08-22T05:47:30.009Z,68.00
2022-08-22T05:50:07.278Z,68.20
2022-08-22T05:52:52.536Z,68.40
2022-08-22T05:55:28.123Z,68.50
2022-08-22T05:58:20.940Z,68.60
2022-08-22T06:00:55.336Z,68.90
2022-08-22T06:03:29.288Z,69.00
2022-08-22T06:06:10.912Z,69.10
2022-08-22T06:08:44.419Z,69.30
2022-08-22T06:11:18.594Z,69.30
2022-08-22T06:13:59.292Z,69.50
2022-08-22T06:16:37.928Z,69.60
2022-08-22T06:19:19.515Z,69.60
2022-08-22T06:21:53.316Z,69.80
2022-08-22T06:24:25.938Z,69.90
2022-08-22T06:27:01.023Z,69.90
2022-08-22T06:29:38.821Z,70.00
2022-08-22T06:32:13.593Z,70.00
2022-08-22T06:34:46.340Z,70.10
2022-08-22T06:37:24.788Z,70.10
2022-08-22T06:39:56.152Z,70.40
2022-08-22T06:42:29.287Z,70.40
2022-08-22T06:45:04.458Z,70.50
2022-08-22T06:47:39.852Z,70.50
2022-08-22T06:50:19.664Z,70.70
2022-08-22T06:52:55.134Z,70.90
2022-08-22T06:55:27.587Z,70.90
2022-08-22T06:57:59.819Z,71.00
2022-08-22T07:00:32.139Z,71.00
2022-08-22T07:03:09.104Z,71.10
2022-08-22T07:05:40.844Z,71.20
2022-08-22T07:08:15.782Z,71.30
2022-08-22T07:10:47.120Z,71.30
2022-08-22T07:13:17.522Z,71.30
2022-08-22T07:15:54.181Z,71.50
2022-08-22T07:18:28.158Z,71.70
2022-08-22T07:20:59.794Z,71.60
2022-08-22T07:23:36.669Z,71.80
2022-08-22T07:26:17.730Z,71.70
2022-08-22T07:28:57.927Z,71.90
2022-08-22T07:31:38.479Z,71.70
2022-08-22T07:34:26.144Z,71.90
2022-08-22T07:37:00.830Z,71.90
2022-08-22T07:39:38.186Z,71.90
2022-08-22T07:42:15.712Z,72.00
2022-08-22T07:45:04.443Z,72.00
2022-08-22T07:47:49.889Z,72.00
2022-08-22T07:50:25.745Z,72.10
2022-08-22T07:52:59.240Z,72.10
2022-08-22T07:55:30.514Z,72.10
2022-08-22T07:58:04.073Z,72.20
2022-08-22T08:00:34.624Z,72.20
2022-08-22T08:03:08.650Z,72.30
2022-08-22T08:05:40.297Z,72.30
2022-08-22T08:08:15.649Z,72.30
2022-08-22T08:10:49.135Z,72.40
2022-08-22T08:13:26.027Z,72.50
2022-08-22T08:15:56.020Z,72.50
2022-08-22T08:18:28.814Z,72.40
2022-08-22T08:21:02.247Z,72.70
2022-08-22T08:23:39.736Z,72.40
2022-08-22T08:26:12.852Z,72.30
2022-08-22T08:28:45.889Z,72.40
2022-08-22T08:31:21.848Z,72.40
2022-08-22T08:33:59.400Z,72.50
2022-08-22T08:36:40.193Z,72.60
2022-08-22T08:39:19.336Z,72.60
2022-08-22T08:42:29.205Z,72.80
2022-08-22T08:45:28.891Z,72.80
2022-08-22T08:48:29.478Z,73.00
2022-08-22T08:51:16.797Z,73.90
2022-08-22T08:54:09.487Z,72.90
2022-08-22T08:56:51.553Z,73.20
2022-08-22T08:59:44.885Z,73.00
2022-08-22T09:02:38.553Z,73.10
2022-08-22T09:05:52.917Z,73.20
2022-08-22T09:09:00.317Z,73.40
2022-08-22T09:12:02.862Z,73.40
2022-08-22T09:15:14.331Z,73.50
2022-08-22T09:18:19.982Z,73.50
2022-08-22T09:21:30.542Z,73.60
2022-08-22T09:24:45.477Z,73.70
2022-08-22T09:27:19.774Z,73.70
2022-08-22T09:29:57.126Z,73.60
2022-08-22T09:32:46.255Z,73.50
2022-08-22T09:35:26.227Z,73.60
2022-08-22T09:38:22.285Z,73.60
2022-08-22T09:41:00.597Z,73.80
2022-08-22T09:43:39.581Z,73.70
2022-08-22T09:46:21.887Z,73.70
2022-08-22T09:49:08.160Z,73.50
2022-08-22T09:51:42.129Z,73.60
2022-08-22T09:54:32.733Z,73.60
2022-08-22T09:57:18.899Z,73.60
2022-08-22T10:00:17.679Z,73.60
2022-08-22T10:03:04.240Z,73.60
2022-08-22T10:05:44.212Z,73.60
2022-08-22T10:08:35.697Z,73.50
2022-08-22T10:11:19.601Z,73.70
2022-08-22T10:13:57.847Z,73.60
2022-08-22T10:16:45.282Z,73.60
2022-08-22T10:19:21.509Z,73.70
2022-08-22T10:22:19.447Z,73.80
2022-08-22T10:24:58.921Z,73.90
2022-08-22T10:27:59.646Z,73.90
2022-08-22T10:30:38.281Z,73.90
2022-08-22T10:33:14.507Z,74.00
2022-08-22T10:35:56.618Z,73.90
2022-08-22T10:38:32.585Z,73.90
2022-08-22T10:41:10.415Z,73.90
2022-08-22T10:43:47.636Z,74.00
2022-08-22T10:46:29.864Z,73.70
2022-08-22T10:49:08.074Z,73.90
2022-08-22T10:51:45.845Z,74.00
2022-08-22T10:54:32.770Z,74.00
2022-08-22T10:57:36.494Z,74.00
2022-08-22T11:00:14.551Z,74.10
2022-08-22T11:03:00.957Z,74.10
2022-08-22T11:05:41.562Z,74.10
2022-08-22T11:08:25.497Z,74.10
2022-08-22T11:11:20.021Z,74.10
2022-08-22T11:14:09.052Z,74.20
2022-08-22T11:16:57.605Z,74.90
2022-08-22T11:19:48.255Z,74.00
2022-08-22T11:22:31.194Z,74.10
2022-08-22T11:25:38.530Z,74.00
2022-08-22T11:28:43.543Z,74.10
2022-08-22T11:31:24.512Z,74.10
2022-08-22T11:33:58.389Z,74.00
2022-08-22T11:36:37.066Z,74.00
2022-08-22T11:39:18.629Z,74.10
2022-08-22T11:42:00.241Z,74.20
2022-08-22T11:44:50.259Z,74.20
2022-08-22T11:47:24.825Z,74.20
2022-08-22T11:50:03.772Z,74.20
2022-08-22T11:52:54.986Z,74.20
2022-08-22T11:55:33.154Z,74.10
2022-08-22T11:58:29.515Z,74.00
2022-08-22T12:01:04.739Z,74.10
2022-08-22T12:03:55.690Z,74.10
2022-08-22T12:06:49.841Z,74.00
2022-08-22T12:09:36.046Z,74.10
2022-08-22T12:12:27.750Z,74.00
2022-08-22T12:15:03.215Z,74.00
2022-08-22T12:18:01.064Z,74.00
2022-08-22T12:20:52.241Z,74.10
2022-08-22T12:23:54.164Z,74.10
2022-08-22T12:26:34.095Z,74.10
2022-08-22T12:29:33.921Z,74.10
2022-08-22T12:32:43.680Z,73.90
2022-08-22T12:35:31.170Z,73.90
2022-08-22T12:38:26.420Z,74.00
2022-08-22T12:41:28.219Z,74.10
2022-08-22T12:44:18.438Z,74.10
2022-08-22T12:47:05.963Z,74.10
2022-08-22T12:49:52.613Z,74.10
2022-08-22T12:52:37.541Z,74.10
2022-08-22T12:55:37.430Z,74.10
2022-08-22T12:58:17.722Z,74.10
2022-08-22T13:00:50.037Z,74.10
2022-08-22T13:03:29.645Z,74.10
2022-08-22T13:06:00.816Z,74.10
2022-08-22T13:08:35.408Z,74.10
2022-08-22T13:11:10.079Z,74.10
2022-08-22T13:13:57.124Z,74.10
2022-08-22T13:16:38.989Z,74.10
2022-08-22T13:19:21.799Z,74.10
2022-08-22T13:21:56.520Z,74.00
2022-08-22T13:24:39.138Z,74.10
2022-08-22T13:27:16.390Z,74.10
2022-08-22T13:29:54.735Z,74.10
2022-08-22T13:32:33.804Z,74.10
2022-08-22T13:35:05.418Z,74.10
2022-08-22T13:37:39.525Z,74.00
2022-08-22T13:40:14.217Z,74.20
2022-08-22T13:42:48.076Z,74.10
2022-08-22T13:45:23.925Z,74.10
2022-08-22T13:47:57.786Z,74.10
2022-08-22T13:50:52.911Z,74.20
2022-08-22T13:53:27.315Z,74.20
2022-08-22T13:56:04.428Z,74.20
2022-08-22T13:58:41.980Z,74.30
2022-08-22T14:01:28.368Z,74.20
2022-08-22T14:04:00.861Z,74.20
2022-08-22T14:06:41.385Z,74.30
2022-08-22T14:09:30.740Z,74.30
2022-08-22T14:12:12.020Z,74.60
2022-08-22T14:14:45.940Z,74.40
2022-08-22T14:17:18.243Z,75.10
2022-08-22T14:19:59.577Z,74.30
2022-08-22T14:22:35.802Z,74.20
2022-08-22T14:25:10.415Z,74.60
2022-08-22T14:27:47.217Z,74.50
2022-08-22T14:30:22.047Z,74.40
2022-08-22T14:32:56.520Z,74.60
2022-08-22T14:35:35.362Z,74.70
2022-08-22T14:38:27.278Z,74.40
2022-08-22T14:41:04.122Z,74.80
2022-08-22T14:43:51.269Z,74.60
2022-08-22T14:46:26.633Z,74.50
2022-08-22T14:49:29.417Z,74.90
2022-08-22T14:52:08.784Z,74.80
2022-08-22T14:54:39.143Z,75.00
2022-08-22T14:57:20.118Z,74.80
2022-08-22T14:59:53.971Z,74.80
2022-08-22T15:02:28.988Z,74.70
2022-08-22T15:05:02.331Z,74.80
2022-08-22T15:07:37.659Z,75.00
2022-08-22T15:10:20.852Z,74.90
2022-08-22T15:12:54.091Z,74.70
2022-08-22T15:15:49.794Z,74.60
2022-08-22T15:18:36.593Z,74.60
2022-08-22T15:21:10.052Z,74.90
2022-08-22T15:23:46.779Z,75.00
2022-08-22T15:26:24.431Z,74.80
2022-08-22T15:29:02.451Z,75.00
2022-08-22T15:31:35.612Z,75.00
2022-08-22T15:34:14.531Z,75.00
2022-08-22T15:37:07.818Z,75.30
2022-08-22T15:40:08.145Z,75.30
2022-08-22T15:42:44.387Z,75.20
2022-08-22T15:45:22.564Z,75.20
2022-08-22T15:47:55.458Z,75.10
2022-08-22T15:50:34.966Z,75.00
2022-08-22T15:53:24.212Z,75.20
2022-08-22T15:56:29.206Z,75.20
2022-08-22T15:59:48.047Z,75.40
2022-08-22T16:02:29.376Z,75.30
2022-08-22T16:05:24.345Z,75.50
2022-08-22T16:08:05.086Z,75.40
2022-08-22T16:10:39.752Z,75.40
2022-08-22T16:13:40.917Z,75.70
2022-08-22T16:16:34.988Z,75.70
2022-08-22T16:19:21.504Z,75.90
2022-08-22T16:22:15.355Z,76.00
2022-08-22T16:25:01.083Z,76.10
2022-08-22T16:27:32.108Z,76.20
2022-08-22T16:30:18.465Z,76.20
2022-08-22T16:32:56.939Z,76.20
2022-08-22T16:36:04.299Z,76.10
2022-08-22T16:38:44.912Z,76.10
2022-08-22T16:41:32.265Z,76.10
2022-08-22T16:44:36.559Z,76.20
2022-08-22T16:47:25.368Z,76.30
2022-08-22T16:50:27.419Z,76.50
2022-08-22T16:53:03.832Z,76.40
2022-08-22T16:55:55.539Z,76.30
2022-08-22T16:59:22.048Z,75.80
2022-08-22T17:02:16.506Z,74.00
2022-08-22T17:04:55.634Z,72.70
2022-08-22T17:07:44.292Z,70.90
2022-08-22T17:10:48.595Z,70.50
2022-08-22T17:13:38.751Z,70.40
2022-08-22T17:16:36.951Z,69.40
2022-08-22T17:19:21.896Z,69.30
2022-08-22T17:21:56.437Z,68.70
2022-08-22T17:24:37.168Z,69.00
2022-08-22T17:27:15.547Z,69.40
2022-08-22T17:30:09.356Z,68.80
2022-08-22T17:33:01.265Z,68.50
2022-08-22T17:35:45.944Z,68.20
2022-08-22T17:38:28.436Z,67.80
2022-08-22T17:41:05.160Z,68.10
2022-08-22T17:43:50.291Z,67.80
2022-08-22T17:46:35.123Z,67.60
2022-08-22T17:49:15.911Z,68.10
2022-08-22T17:51:52.527Z,68.50
2022-08-22T17:54:29.722Z,68.30
2022-08-22T17:57:06.064Z,67.10
2022-08-22T17:59:46.838Z,67.40
2022-08-22T18:02:23.150Z,67.40
2022-08-22T18:05:03.329Z,67.70
2022-08-22T18:07:42.061Z,68.00
2022-08-22T18:10:22.062Z,67.70
2022-08-22T18:13:06.177Z,67.60
2022-08-22T18:15:43.712Z,68.00
2022-08-22T18:18:27.022Z,68.10
2022-08-22T18:21:04.841Z,67.30
2022-08-22T18:23:40.792Z,67.50
2022-08-22T18:26:24.009Z,68.20
2022-08-22T18:28:58.530Z,68.10
2022-08-22T18:31:42.101Z,68.20
2022-08-22T18:34:25.844Z,68.20
2022-08-22T18:37:03.564Z,68.10
2022-08-22T18:39:42.719Z,67.70
2022-08-22T18:42:25.916Z,68.30
2022-08-22T18:44:55.232Z,67.80
2022-08-22T18:47:28.613Z,67.50
2022-08-22T18:50:00.936Z,68.30
2022-08-22T18:52:39.889Z,68.70
2022-08-22T18:55:28.461Z,68.30
2022-08-22T18:58:22.568Z,69.20
2022-08-22T19:01:08.264Z,68.80
2022-08-22T19:04:05.620Z,69.20
2022-08-22T19:06:57.546Z,69.00
2022-08-22T19:09:59.934Z,69.10
2022-08-22T19:12:43.418Z,68.80
2022-08-22T19:15:27.599Z,69.30
2022-08-22T19:18:34.579Z,69.10
2022-08-22T19:21:49.135Z,69.00
2022-08-22T19:24:44.088Z,68.90
2022-08-22T19:27:31.091Z,69.20
2022-08-22T19:30:03.615Z,69.40
2022-08-22T19:33:05.787Z,69.20
2022-08-22T19:35:47.369Z,69.20
2022-08-22T19:39:00.051Z,69.30
2022-08-22T19:41:47.523Z,69.20
2022-08-22T19:44:35.885Z,69.40
2022-08-22T19:47:11.597Z,70.50
2022-08-22T19:49:45.111Z,70.00
2022-08-22T19:52:31.307Z,70.00
2022-08-22T19:55:09.269Z,70.00
2022-08-22T19:57:46.225Z,70.00
2022-08-22T20:00:18.611Z,70.10
2022-08-22T20:03:02.660Z,69.90
2022-08-22T20:05:47.437Z,69.70
2022-08-22T20:08:56.982Z,69.70
2022-08-22T20:11:42.650Z,69.80
2022-08-22T20:14:18.256Z,69.40
2022-08-22T20:17:13.029Z,69.50
2022-08-22T20:22:46.837Z,68.70
2022-08-22T20:25:41.453Z,69.10
2022-08-22T20:28:39.058Z,68.80
2022-08-22T20:31:13.778Z,69.20
2022-08-22T20:33:46.180Z,68.70
2022-08-22T20:36:27.560Z,68.50
2022-08-22T20:39:02.933Z,68.30
2022-08-22T20:41:36.121Z,68.20
2022-08-22T20:44:13.944Z,68.30
2022-08-22T20:46:55.170Z,67.90
2022-08-22T20:49:28.665Z,68.30
2022-08-22T20:51:59.748Z,68.20
2022-08-22T20:54:31.423Z,67.90
2022-08-22T20:57:02.691Z,67.70
2022-08-22T20:59:40.289Z,67.90
2022-08-22T21:02:15.122Z,68.00
2022-08-22T21:04:52.870Z,68.10
2022-08-22T21:07:24.656Z,68.20
2022-08-22T21:10:22.335Z,68.20
2022-08-22T21:13:08.488Z,68.00
2022-08-22T21:15:41.957Z,68.40
2022-08-22T21:18:13.367Z,67.90
2022-08-22T21:20:42.897Z,67.90
2022-08-22T21:23:16.362Z,68.00
2022-08-22T21:25:53.604Z,68.00
2022-08-22T21:28:32.022Z,68.00
2022-08-22T21:31:11.646Z,68.20
2022-08-22T21:33:45.832Z,68.30
2022-08-22T21:36:20.257Z,68.50
2022-08-22T21:38:53.737Z,68.30
2022-08-22T21:41:32.974Z,68.10
2022-08-22T21:44:25.292Z,68.10
2022-08-22T21:46:56.969Z,68.20
2022-08-22T21:49:30.378Z,68.30
2022-08-22T21:51:59.644Z,68.20
2022-08-22T21:54:40.329Z,68.30
2022-08-22T21:57:21.969Z,68.40
2022-08-22T21:59:59.771Z,68.40
2022-08-22T22:02:39.659Z,68.20
2022-08-22T22:05:12.219Z,68.30
2022-08-22T22:07:43.670Z,68.10
2022-08-22T22:10:16.281Z,68.10
2022-08-22T22:12:48.051Z,68.00
2022-08-22T22:15:19.679Z,68.10
2022-08-22T22:17:50.381Z,67.80
2022-08-22T22:20:21.935Z,67.80
2022-08-22T22:22:51.430Z,68.00
2022-08-22T22:25:39.953Z,67.90
2022-08-22T22:28:14.039Z,68.20
2022-08-22T22:30:45.157Z,68.10
2022-08-22T22:33:15.916Z,68.10
2022-08-22T22:35:45.408Z,68.30
2022-08-22T22:38:14.867Z,68.30
2022-08-22T22:40:44.169Z,68.30
2022-08-22T22:43:13.730Z,68.30
2022-08-22T22:45:43.203Z,68.20
2022-08-22T22:48:18.108Z,68.30
2022-08-22T22:50:56.155Z,68.30
2022-08-22T22:53:40.233Z,68.20
2022-08-22T22:56:11.712Z,68.30
2022-08-22T22:58:42.375Z,68.40
2022-08-22T23:01:12.866Z,68.40
2022-08-22T23:03:42.196Z,68.40
2022-08-22T23:06:14.815Z,68.50
2022-08-22T23:08:44.213Z,68.60
2022-08-22T23:11:14.303Z,68.60
2022-08-22T23:13:43.766Z,68.80
2022-08-22T23:16:15.813Z,68.80
2022-08-22T23:18:45.211Z,68.90
2022-08-22T23:21:22.309Z,68.80
2022-08-22T23:23:52.118Z,68.80
2022-08-22T23:26:21.434Z,68.80
2022-08-22T23:28:50.800Z,68.90
2022-08-22T23:31:29.624Z,69.00
2022-08-22T23:34:03.512Z,69.00
2022-08-22T23:36:34.339Z,69.10
2022-08-22T23:39:03.909Z,69.30
2022-08-22T23:41:33.318Z,69.30
2022-08-22T23:44:02.581Z,69.30
2022-08-22T23:46:31.752Z,69.40
2022-08-22T23:49:02.851Z,69.50
2022-08-22T23:51:33.923Z,69.50
2022-08-22T23:54:04.187Z,69.60
2022-08-22T23:56:36.653Z,69.60
2022-08-22T23:59:09.105Z,69.70
